KAZO/AZO METAR and TAF weather

Enter ICAO airport designator
Station Type Date Time Source
KAZO METAR 2020/04/08 19:53 UTC NOAA

KAZO 081953Z 30008KT 10SM SCT110 21/05 A2970 RMK AO2 SLP055 T02110050


Station Type Date Time Source
KAZO Decoded METAR 2020/04/08 19:53 UTC NOAA

KALAMAZOO/BATTLE CREEK AIRPORT, MI, United States (KAZO) 42-14N 085-33W 272M
Apr 08, 2020 - 03:53 PM EDT / 2020.04.08 1953 UTC
Wind: from the WNW (300 degrees) at 9 MPH (8 KT):0
Visibility: 10 mile(s):0
Sky conditions: partly cloudy
Temperature: 70.0 F (21.1 C)
Dew Point: 41.0 F (5.0 C)
Relative Humidity: 34%
Pressure (altimeter): 29.7 in. Hg (1005 hPa)
ob: KAZO 081953Z 30008KT 10SM SCT110 21/05 A2970 RMK AO2 SLP055 T02110050
cycle: 20

Station Type Date Time Source
KAZO TAF 2020/04/08 18:42 UTC NOAA

TAF KAZO 081740Z 0818/0918 27008KT P6SM SCT120
FM082100 28009KT P6SM VCSH BKN120
FM090000 31010KT 4SM -SHRA BR OVC025
FM090600 30010KT P6SM BKN080
FM091400 29016G28KT P6SM BKN035

Example: see airport list